Shirley P. Settoon — WDF9252 — position and weather

sailwx.info

Track history (hours):
 
Tides and Currents Weather Stations Pressure Air Temp Water Temp Dewpoint Dewpoint Depression Visibility Wind Speed Wind Dir Waves Ship Positions

Shirley P. Settoon

Owner: Settoon Towing, LLC, Houma, LA. More information available from US FCC via Universal Licensing System and Coast Guard Vessel Documentation Center.

Last reported at 2015-Jul-12 04:22 UTC. Time now 2015-Jul-30 02:06 UTC.
Position N 29°36' W 090°58'.
Warning: this ship's position is 17 days out of date.

Length 32 m.

Type: Towing. MMSI: 367503240.

Date/timePositionNaut miles runAvg speedWind from/ knotsBaromVisibWave heightAir tempDewpointWater temp
2015-Jul-12 04:22N 29°36' W 090°58'4 5.2
2015-Jul-12 03:31N 29°33' W 090°54'5 5.2
2015-Jul-12 02:33N 29°32' W 090°49'4 4.2
2015-Jul-12 01:33N 29°34' W 090°44'4 3.5
2015-Jul-12 00:33N 29°37' W 090°42'1 0.9
2015-Jul-11 23:33N 29°36' W 090°41'1 1.2
2015-Jul-11 22:33N 29°36' W 090°40'4 3.9
2015-Jul-11 21:33N 29°35' W 090°36'4 3.6
2015-Jul-11 20:33N 29°34' W 090°32'37 3.0
2015-Jul-11 08:20N 29°55' W 089°58'0 0.0
2015-Jul-11 07:31N 29°55' W 089°58'0 0.0
2015-Jul-11 06:32N 29°55' W 089°58'0 0.3
2015-Jul-11 05:10N 29°55' W 089°57'0 0.4
2015-Jul-11 04:26N 29°55' W 089°57'0 0.0
2015-Jul-11 03:29N 29°55' W 089°57'0 0.0
2015-Jul-11 02:33N 29°55' W 089°57'2 1.2
2015-Jul-11 01:17N 29°55' W 089°55'5 6.3
2015-Jul-11 00:30N 29°57' W 090°01'7 6.8
2015-Jul-10 23:33N 29°55' W 090°08'  
2015-Jul-08 12:07N 29°56' W 090°08'3 4.4
2015-Jul-08 11:27N 29°55' W 090°05'4 4.3
2015-Jul-08 10:31N 29°57' W 090°02'32 0.8
2015-Jul-06 20:32N 29°33' W 090°27'6 6.1
2015-Jul-06 19:33N 29°34' W 090°33'6 5.9
2015-Jul-06 18:33N 29°36' W 090°40'3 3.4
2015-Jul-06 17:33N 29°34' W 090°43'5 5.4
2015-Jul-06 16:33N 29°32' W 090°49'  
2015-Jul-04 02:16N 29°29' W 094°52'6 8.8
2015-Jul-04 01:33N 29°34' W 094°55'9 8.6
2015-Jul-04 00:33N 29°42' W 094°60'7 6.5
2015-Jul-03 23:33N 29°47' W 095°04'1 0.7
2015-Jul-03 22:23N 29°47' W 095°04'1 1.5
2015-Jul-03 21:33N 29°46' W 095°05'10 1.1
2015-Jul-03 12:33N 29°43' W 095°15'5 0.2
2015-Jul-02 11:18N 29°45' W 095°10'5 6.7
2015-Jul-02 10:33N 29°45' W 095°04'7 7.0
2015-Jul-02 09:33N 29°40' W 094°59'8 7.9
2015-Jul-02 08:33N 29°33' W 094°55'  
Track history (hours):
 
Tides and Currents Weather Stations Pressure Air Temp Water Temp Dewpoint Dewpoint Depression Visibility Wind Speed Wind Dir Waves Ship Positions

Shirley P. Settoon

Owner: Settoon Towing, LLC, Houma, LA. More information available from US FCC via Universal Licensing System and Coast Guard Vessel Documentation Center.

Last reported at 2015-Jul-12 04:22 UTC. Time now 2015-Jul-30 02:06 UTC.
Position N 29°36' W 090°58'.
Warning: this ship's position is 17 days out of date.

Length 32 m.

Type: Towing. MMSI: 367503240.

Date/timePositionNaut miles runAvg speedWind from/ knotsBaromVisibWave heightAir tempDewpointWater temp
2015-Jul-12 04:22N 29°36' W 090°58'4 5.2
2015-Jul-12 03:31N 29°33' W 090°54'5 5.2
2015-Jul-12 02:33N 29°32' W 090°49'4 4.2
2015-Jul-12 01:33N 29°34' W 090°44'4 3.5
2015-Jul-12 00:33N 29°37' W 090°42'1 0.9
2015-Jul-11 23:33N 29°36' W 090°41'1 1.2
2015-Jul-11 22:33N 29°36' W 090°40'4 3.9
2015-Jul-11 21:33N 29°35' W 090°36'4 3.6
2015-Jul-11 20:33N 29°34' W 090°32'37 3.0
2015-Jul-11 08:20N 29°55' W 089°58'0 0.0
2015-Jul-11 07:31N 29°55' W 089°58'0 0.0
2015-Jul-11 06:32N 29°55' W 089°58'0 0.3
2015-Jul-11 05:10N 29°55' W 089°57'0 0.4
2015-Jul-11 04:26N 29°55' W 089°57'0 0.0
2015-Jul-11 03:29N 29°55' W 089°57'0 0.0
2015-Jul-11 02:33N 29°55' W 089°57'2 1.2
2015-Jul-11 01:17N 29°55' W 089°55'5 6.3
2015-Jul-11 00:30N 29°57' W 090°01'7 6.8
2015-Jul-10 23:33N 29°55' W 090°08'  
2015-Jul-08 12:07N 29°56' W 090°08'3 4.4
2015-Jul-08 11:27N 29°55' W 090°05'4 4.3
2015-Jul-08 10:31N 29°57' W 090°02'32 0.8
2015-Jul-06 20:32N 29°33' W 090°27'6 6.1
2015-Jul-06 19:33N 29°34' W 090°33'6 5.9
2015-Jul-06 18:33N 29°36' W 090°40'3 3.4
2015-Jul-06 17:33N 29°34' W 090°43'5 5.4
2015-Jul-06 16:33N 29°32' W 090°49'  
2015-Jul-04 02:16N 29°29' W 094°52'6 8.8
2015-Jul-04 01:33N 29°34' W 094°55'9 8.6
2015-Jul-04 00:33N 29°42' W 094°60'7 6.5
2015-Jul-03 23:33N 29°47' W 095°04'1 0.7
2015-Jul-03 22:23N 29°47' W 095°04'1 1.5
2015-Jul-03 21:33N 29°46' W 095°05'10 1.1
2015-Jul-03 12:33N 29°43' W 095°15'5 0.2
2015-Jul-02 11:18N 29°45' W 095°10'5 6.7
2015-Jul-02 10:33N 29°45' W 095°04'7 7.0
2015-Jul-02 09:33N 29°40' W 094°59'8 7.9
2015-Jul-02 08:33N 29°33' W 094°55'  

Dump ship's entire track history